KAMN/AMN METAR and TAF weather

Enter ICAO airport designator
Station Type Date Time Source
KAMN METAR 2019/08/21 22:19 UTC NOAA

KAMN 212219Z AUTO 28008G11KT 10SM CLR 27/16 A2990 RMK AO2 T02720163


Station Type Date Time Source
KAMN Decoded METAR 2019/08/21 22:19 UTC NOAA

Station name not available
Aug 21, 2019 - 06:19 PM EDT / 2019.08.21 2219 UTC
Wind: from the W (280 degrees) at 9 MPH (8 KT) gusting to 13 MPH (11 KT):0
Visibility: 10 mile(s):0
Sky conditions: clear
Temperature: 81.0 F (27.2 C)
Dew Point: 61.3 F (16.3 C)
Relative Humidity: 51%
Pressure (altimeter): 29.9 in. Hg (1012 hPa)
ob: KAMN 212219Z AUTO 28008G11KT 10SM CLR 27/16 A2990 RMK AO2 T02720163
cycle: 22

Station Type Date Time Source
KAMN TAF UTC NOAA

Error!

Example: see airport list